Time;durP1;ratioP1;P1;durP2;ratioP2;P2;SDS_P1;SDS_P2;PMS_P1;PMS_P2;Temp;Humidity;BMP_temperature;BMP_pressure;BME280_temperature;BME280_humidity;BME280_pressure;Samples;Min_cycle;Max_cycle;Signal;HPM_P1;HPM_P2
2021/04/25 00:00:24;;;;;;;35.10;21.33;;;230.80;1689.60;;;;;;5035205;28;20069;-81
2021/04/25 00:02:50;;;;;;;44.70;25.17;;;230.80;1638.40;;;;;;5035715;28;20037;-81
2021/04/25 00:05:19;;;;;;;44.78;24.58;;;230.80;1689.60;;;;;;5034583;28;20045;-81
2021/04/25 00:07:46;;;;;;;54.63;27.67;;;230.80;1715.20;;;;;;5018104;28;20477;-81
2021/04/25 00:10:13;;;;;;;43.67;27.85;;;230.80;1689.60;;;;;;5017708;28;20120;-81
2021/04/25 00:12:43;;;;;;;48.08;27.88;;;230.70;1715.20;;;;;;5017749;28;20441;-81
2021/04/25 00:15:20;;;;;;;47.90;26.50;;;230.70;1740.80;;;;;;5018127;28;20047;-81
2021/04/25 00:17:47;;;;;;;38.08;23.65;;;230.60;1715.20;;;;;;5034432;28;20144;-81
2021/04/25 00:20:14;;;;;;;38.22;23.90;;;230.40;1740.80;;;;;;5035961;28;20034;-80
2021/04/25 00:22:40;;;;;;;40.95;25.92;;;230.40;1766.40;;;;;;5035316;28;20045;-81
2021/04/25 00:25:07;;;;;;;41.90;24.00;;;230.40;1740.80;;;;;;5016845;28;20480;-80
2021/04/25 00:27:33;;;;;;;41.50;23.77;;;205.70;1766.40;;;;;;5017424;28;20057;-81
2021/04/25 00:29:59;;;;;;;40.95;23.27;;;205.70;1766.40;;;;;;5042813;28;20042;-80
2021/04/25 00:32:26;;;;;;;36.20;22.15;;;205.70;1740.80;;;;;;5034572;28;20474;-80
2021/04/25 00:34:52;;;;;;;41.28;24.65;;;205.70;1766.40;;;;;;5043844;28;20104;-80
2021/04/25 00:37:18;;;;;;;34.10;20.60;;;205.70;1766.40;;;;;;5019374;28;20033;-80
2021/04/25 00:40:18;;;;;;;29.02;18.50;;;205.70;1792.00;;;;;;5017424;28;20544;-80
2021/04/25 00:42:44;;;;;;;;;;;205.60;1766.40;;;;;;5017514;28;20041;-81
2021/04/25 00:45:14;;;;;;;;;;;205.50;1792.00;;;;;;5033978;28;19913;-81
2021/04/25 00:47:45;;;;;;;25.38;13.68;;;205.50;1766.40;;;;;;5033586;28;19909;-81
2021/04/25 00:50:12;;;;;;;21.80;14.77;;;205.40;1766.40;;;;;;5017262;28;20470;-81
2021/04/25 00:52:42;;;;;;;21.63;12.52;;;205.30;1792.00;;;;;;5017179;28;20044;-81
2021/04/25 00:55:09;;;;;;;19.33;11.82;;;205.20;1792.00;;;;;;5017048;28;20041;-81
2021/04/25 00:57:35;;;;;;;30.85;15.02;;;205.20;1766.40;;;;;;5016901;28;20040;-81
2021/04/25 01:00:03;;;;;;;22.42;13.90;;;205.30;1766.40;;;;;;5017067;28;20033;-81
2021/04/25 01:02:29;;;;;;;20.38;12.43;;;205.20;1766.40;;;;;;5017317;28;20030;-81
2021/04/25 01:04:55;;;;;;;21.98;13.70;;;205.40;1792.00;;;;;;5016008;28;20132;-79
2021/04/25 01:07:21;;;;;;;22.70;14.52;;;205.20;1792.00;;;;;;5016758;28;20124;-79
2021/04/25 01:09:47;;;;;;;23.85;12.05;;;205.10;1792.00;;;;;;5034439;28;20111;-81
2021/04/25 01:12:13;;;;;;;29.75;12.95;;;205.00;1817.60;;;;;;5034098;28;20486;-81
2021/04/25 01:14:39;;;;;;;26.23;13.45;;;205.00;1817.60;;;;;;5016456;28;20030;-79
2021/04/25 01:17:04;;;;;;;25.58;13.07;;;205.00;1817.60;;;;;;5016849;28;20039;-81
2021/04/25 01:19:30;;;;;;;19.83;13.48;;;205.00;1817.60;;;;;;5016460;28;20045;-81
2021/04/25 01:21:56;;;;;;;23.40;12.75;;;205.10;1817.60;;;;;;5016696;28;20500;-81
2021/04/25 01:24:22;;;;;;;21.08;13.98;;;205.00;1817.60;;;;;;5016164;28;20123;-80
2021/04/25 01:26:48;;;;;;;27.02;14.27;;;204.90;1843.20;;;;;;5016809;28;20125;-80
2021/04/25 01:29:14;;;;;;;21.73;12.43;;;204.90;1817.60;;;;;;5016349;28;20069;-81
2021/04/25 01:31:39;;;;;;;20.67;13.35;;;204.90;1843.20;;;;;;5016360;28;20041;-81
2021/04/25 01:34:05;;;;;;;19.30;11.40;;;204.90;1843.20;;;;;;5016329;28;20069;-80
2021/04/25 01:36:31;;;;;;;25.17;13.98;;;204.80;1843.20;;;;;;5016190;28;20040;-81
2021/04/25 01:38:57;;;;;;;29.00;15.77;;;204.80;1817.60;;;;;;5016393;28;20041;-81
2021/04/25 01:41:23;;;;;;;29.83;17.45;;;204.80;1868.80;;;;;;5033965;28;20021;-81
2021/04/25 01:43:50;;;;;;;24.55;13.60;;;204.80;1843.20;;;;;;5016055;28;20033;-81
2021/04/25 01:46:16;;;;;;;25.00;12.63;;;204.80;1843.20;;;;;;5016272;28;20065;-80
2021/04/25 01:48:43;;;;;;;22.33;13.20;;;204.80;1817.60;;;;;;5034115;28;20166;-81
2021/04/25 01:51:09;;;;;;;25.42;13.85;;;180.10;1843.20;;;;;;5016285;28;20108;-81
2021/04/25 01:53:35;;;;;;;20.95;12.10;;;180.10;1843.20;;;;;;5016033;28;20449;-81
2021/04/25 01:56:02;;;;;;;25.15;13.35;;;180.10;1817.60;;;;;;5016033;28;20184;-81
2021/04/25 01:58:28;;;;;;;22.33;13.32;;;180.00;1868.80;;;;;;5014490;28;20124;-81
2021/04/25 02:00:54;;;;;;;20.02;11.88;;;180.10;1843.20;;;;;;5016342;28;20115;-80
2021/04/25 02:03:21;;;;;;;22.08;12.30;;;179.90;1843.20;;;;;;5015985;28;20045;-80
2021/04/25 02:05:47;;;;;;;25.50;12.45;;;179.90;1817.60;;;;;;5033715;28;20041;-84
2021/04/25 02:08:14;;;;;;;25.10;12.98;;;180.00;1868.80;;;;;;5015260;28;20045;-80
2021/04/25 02:10:40;;;;;;;21.63;12.10;;;179.90;1894.40;;;;;;5015930;28;20405;-81
2021/04/25 02:13:08;;;;;;;20.48;12.20;;;179.80;1894.40;;;;;;5016034;28;20037;-80
2021/04/25 02:15:34;;;;;;;20.50;12.00;;;179.80;1894.40;;;;;;5033951;28;20477;-81
2021/04/25 02:18:00;;;;;;;23.80;14.23;;;179.80;1894.40;;;;;;5016640;28;20076;-81
2021/04/25 02:20:26;;;;;;;22.20;12.88;;;179.80;1920.00;;;;;;5016169;28;20083;-81
2021/04/25 02:22:53;;;;;;;26.00;12.98;;;179.70;1920.00;;;;;;5033595;28;20029;-81
2021/04/25 02:25:19;;;;;;;23.70;13.32;;;179.80;1894.40;;;;;;5015563;28;20065;-81
2021/04/25 02:27:46;;;;;;;20.40;13.32;;;179.80;1920.00;;;;;;5016085;28;20477;-80
2021/04/25 02:30:17;;;;;;;23.83;13.98;;;179.70;1920.00;;;;;;5033532;28;20497;-80
2021/04/25 02:32:43;;;;;;;23.92;12.05;;;179.70;1920.00;;;;;;5015699;28;20052;-81
2021/04/25 02:35:11;;;;;;;20.17;11.60;;;179.80;1843.20;;;;;;5016903;28;20029;-80
2021/04/25 02:37:38;;;;;;;18.70;12.75;;;179.70;1868.80;;;;;;5016404;28;20033;-81
2021/04/25 02:40:08;;;;;;;18.73;11.75;;;179.80;1843.20;;;;;;5015931;28;20445;-80
2021/04/25 02:42:35;;;;;;;22.40;13.65;;;179.70;1868.80;;;;;;5016657;28;20116;-80
2021/04/25 02:45:01;;;;;;;24.08;14.05;;;179.60;1868.80;;;;;;5032177;28;20064;-81
2021/04/25 02:47:27;;;;;;;19.85;12.25;;;179.50;1894.40;;;;;;5033286;28;20114;-80
2021/04/25 02:49:53;;;;;;;28.27;14.43;;;179.60;1894.40;;;;;;5031333;28;20627;-80
2021/04/25 02:52:18;;;;;;;23.75;14.38;;;179.50;1920.00;;;;;;5036200;28;20090;-80
2021/04/25 02:54:44;;;;;;;27.73;14.73;;;179.50;1894.40;;;;;;5037302;28;20060;-80
2021/04/25 02:57:10;;;;;;;19.73;13.18;;;179.50;1920.00;;;;;;5057139;28;20096;-80
2021/04/25 02:59:36;;;;;;;25.50;13.13;;;179.40;1920.00;;;;;;5072902;28;20013;-80
2021/04/25 03:02:02;;;;;;;26.47;14.23;;;179.30;1945.60;;;;;;5055849;28;20026;-81
2021/04/25 03:04:27;;;;;;;27.00;14.52;;;179.30;1945.60;;;;;;5042108;28;20551;-80
2021/04/25 03:06:53;;;;;;;22.38;12.48;;;179.40;1920.00;;;;;;5053060;28;20037;-81
2021/04/25 03:09:19;;;;;;;31.23;16.40;;;179.30;1920.00;;;;;;5035150;28;20140;-81
2021/04/25 03:11:45;;;;;;;32.83;17.33;;;179.20;1971.20;;;;;;5035446;28;20082;-81
2021/04/25 03:14:11;;;;;;;28.50;16.05;;;179.20;1971.20;;;;;;5035480;28;20123;-81
2021/04/25 03:16:37;;;;;;;33.83;17.98;;;179.20;1945.60;;;;;;5035614;28;20562;-81
2021/04/25 03:19:03;;;;;;;29.25;17.45;;;179.20;1945.60;;;;;;5035326;28;20083;-81
2021/04/25 03:21:28;;;;;;;29.58;18.67;;;179.20;1971.20;;;;;;5035526;28;20056;-81
2021/04/25 03:23:54;;;;;;;30.58;19.10;;;179.20;1945.60;;;;;;5051382;28;20049;-81
2021/04/25 03:26:20;;;;;;;37.88;19.48;;;154.50;1971.20;;;;;;5035346;28;20037;-82
2021/04/25 03:28:45;;;;;;;38.50;22.07;;;154.30;1996.80;;;;;;5056341;28;20041;-81
2021/04/25 03:31:11;;;;;;;46.47;25.30;;;154.30;1971.20;;;;;;5038586;28;20477;-80
2021/04/25 03:33:37;;;;;;;45.20;26.80;;;154.40;1971.20;;;;;;5054870;28;20029;-81
2021/04/25 03:36:03;;;;;;;42.78;24.55;;;154.40;1920.00;;;;;;5056544;28;20028;-80
2021/04/25 03:38:29;;;;;;;36.33;21.92;;;154.40;1945.60;;;;;;5055329;28;20041;-80
2021/04/25 03:40:56;;;;;;;40.20;23.13;;;154.50;1945.60;;;;;;5038049;28;20128;-80
2021/04/25 03:43:22;;;;;;;50.53;24.63;;;154.30;1996.80;;;;;;5038095;28;20044;-80
2021/04/25 03:45:48;;;;;;;41.53;24.30;;;154.20;1996.80;;;;;;5055824;28;20075;-80
2021/04/25 03:48:14;;;;;;;42.07;24.53;;;154.10;2022.40;;;;;;5037477;28;20041;-81
2021/04/25 03:50:39;;;;;;;38.27;23.20;;;154.20;1971.20;;;;;;5037883;28;20074;-80
2021/04/25 03:53:05;;;;;;;42.80;23.27;;;154.30;1971.20;;;;;;5038011;28;20052;-80
2021/04/25 03:55:31;;;;;;;33.05;19.00;;;154.30;1996.80;;;;;;5037805;28;20059;-80
2021/04/25 03:57:57;;;;;;;35.55;20.25;;;154.30;1971.20;;;;;;5037608;28;20029;-80
2021/04/25 04:00:23;;;;;;;36.83;20.95;;;154.40;1971.20;;;;;;5055812;28;20480;-80
2021/04/25 04:02:50;;;;;;;34.77;21.70;;;154.30;1996.80;;;;;;5037631;28;20374;-80
2021/04/25 04:05:16;;;;;;;41.78;22.20;;;154.40;1971.20;;;;;;5037804;28;20041;-80
2021/04/25 04:07:42;;;;;;;35.50;21.87;;;154.30;1996.80;;;;;;5037671;28;20079;-80
2021/04/25 04:10:09;;;;;;;32.37;20.80;;;154.30;2022.40;;;;;;5055279;28;20033;-80
2021/04/25 04:12:34;;;;;;;34.55;19.35;;;154.30;2022.40;;;;;;5037407;28;20037;-80
2021/04/25 04:15:00;;;;;;;32.77;18.50;;;154.30;2022.40;;;;;;5055255;28;20071;-80
2021/04/25 04:17:26;;;;;;;36.20;19.25;;;154.30;2022.40;;;;;;5037816;28;20036;-80
2021/04/25 04:19:52;;;;;;;35.97;20.97;;;154.30;2022.40;;;;;;5055207;28;20045;-80
2021/04/25 04:22:17;;;;;;;41.30;21.30;;;154.40;2022.40;;;;;;5037730;28;20477;-80
2021/04/25 04:24:43;;;;;;;43.47;26.77;;;154.40;2022.40;;;;;;5053531;28;20110;-80
2021/04/25 04:27:09;;;;;;;43.30;25.50;;;154.40;1996.80;;;;;;5053861;28;20033;-80
2021/04/25 04:29:35;;;;;;;46.75;26.33;;;154.50;1971.20;;;;;;5037256;28;20033;-80
2021/04/25 04:32:00;;;;;;;41.53;24.07;;;154.40;1996.80;;;;;;5055213;28;20044;-80
2021/04/25 04:34:26;;;;;;;49.13;22.87;;;154.50;1996.80;;;;;;5036929;28;20447;-80
2021/04/25 04:36:53;;;;;;;33.10;20.17;;;179.20;1996.80;;;;;;5036617;28;20033;-80
2021/04/25 04:39:19;;;;;;;42.97;23.47;;;154.50;1996.80;;;;;;5036553;28;20041;-81
2021/04/25 04:41:45;;;;;;;33.57;22.33;;;179.20;1971.20;;;;;;5054806;28;20032;-80
2021/04/25 04:44:10;;;;;;;36.80;21.57;;;179.20;1971.20;;;;;;5054727;28;20056;-80
2021/04/25 04:46:36;;;;;;;32.20;19.47;;;179.20;1996.80;;;;;;5036772;28;20040;-80
2021/04/25 04:49:03;;;;;;;50.65;27.67;;;179.30;1996.80;;;;;;5053354;28;20131;-80
2021/04/25 04:51:28;;;;;;;40.70;24.77;;;179.30;1945.60;;;;;;5054896;28;20037;-80
2021/04/25 04:53:54;;;;;;;126.47;39.90;;;179.30;1971.20;;;;;;5036132;28;20400;-80
2021/04/25 04:56:20;;;;;;;38.50;22.07;;;179.40;1971.20;;;;;;5054797;28;20033;-80
2021/04/25 04:58:45;;;;;;;35.33;22.23;;;179.40;1971.20;;;;;;5036742;28;20171;-81
2021/04/25 05:01:11;;;;;;;29.83;17.97;;;179.40;1971.20;;;;;;5036786;28;20033;-81
2021/04/25 05:03:37;;;;;;;18.80;12.50;;;179.40;1945.60;;;;;;5036550;28;20041;-81
2021/04/25 05:06:03;;;;;;;21.07;12.13;;;179.40;1920.00;;;;;;5036790;28;20082;-81
2021/04/25 05:08:28;;;;;;;28.13;16.92;;;179.50;1920.00;;;;;;5033202;28;20041;-81
2021/04/25 05:10:54;;;;;;;39.10;20.93;;;179.50;1920.00;;;;;;5036351;28;20504;-82
2021/04/25 05:13:20;;;;;;;32.23;19.97;;;179.30;1996.80;;;;;;5054704;28;20522;-80
2021/04/25 05:15:46;;;;;;;32.13;18.57;;;179.30;1996.80;;;;;;5036393;28;20043;-80
2021/04/25 05:18:12;;;;;;;32.72;18.95;;;179.30;1996.80;;;;;;5036353;28;20478;-80
2021/04/25 05:20:38;;;;;;;35.67;20.73;;;154.50;2022.40;;;;;;5036389;28;20087;-81
2021/04/25 05:23:05;;;;;;;29.23;17.60;;;154.50;2022.40;;;;;;5026806;28;20452;-80
2021/04/25 05:25:31;;;;;;;32.25;17.30;;;179.20;2022.40;;;;;;5042773;28;20523;-81
2021/04/25 05:27:56;;;;;;;28.93;16.43;;;179.20;2022.40;;;;;;5030331;28;20476;-82
2021/04/25 05:30:23;;;;;;;26.33;15.83;;;179.30;1996.80;;;;;;5039435;28;20141;-82
2021/04/25 05:32:48;;;;;;;31.70;15.87;;;179.50;1996.80;;;;;;5031629;28;20128;-82
2021/04/25 05:35:14;;;;;;;25.20;15.77;;;179.50;1971.20;;;;;;5018410;28;20120;-81
2021/04/25 05:37:43;;;;;;;42.75;17.42;;;179.70;1945.60;;;;;;5035802;28;20037;-82
2021/04/25 05:40:11;;;;;;;25.10;16.55;;;179.80;1945.60;;;;;;5034622;28;20124;-81
2021/04/25 05:42:38;;;;;;;27.70;15.60;;;180.00;1945.60;;;;;;5019738;28;20033;-82
2021/04/25 05:45:05;;;;;;;29.98;16.63;;;204.80;1920.00;;;;;;5033352;28;20050;-83
2021/04/25 05:47:30;;;;;;;29.65;16.65;;;204.80;1894.40;;;;;;5026916;28;20034;-83
2021/04/25 05:49:56;;;;;;;24.60;13.48;;;204.90;1894.40;;;;;;5037770;28;20125;-82
2021/04/25 05:52:22;;;;;;;38.28;20.50;;;205.20;1920.00;;;;;;5037598;28;20053;-82
2021/04/25 05:54:47;;;;;;;26.20;17.13;;;205.50;1868.80;;;;;;5055778;28;20053;-83
2021/04/25 05:57:13;;;;;;;24.50;14.57;;;205.30;1868.80;;;;;;5050024;28;20083;-84
2021/04/25 05:59:39;;;;;;;27.60;15.80;;;205.40;1843.20;;;;;;5037196;28;20046;-84
2021/04/25 06:02:06;;;;;;;30.42;17.90;;;205.50;1817.60;;;;;;5033216;28;20033;-84
2021/04/25 06:04:32;;;;;;;32.28;17.98;;;205.60;1817.60;;;;;;5034947;28;20052;-84
2021/04/25 06:07:00;;;;;;;37.60;19.10;;;205.70;1817.60;;;;;;5027740;28;20055;-84
2021/04/25 06:09:26;;;;;;;39.90;21.90;;;230.40;1817.60;;;;;;5033847;28;20064;-83
2021/04/25 06:11:52;;;;;;;34.77;18.83;;;230.50;1792.00;;;;;;5036592;28;20033;-83
2021/04/25 06:14:19;;;;;;;34.25;19.52;;;230.60;1766.40;;;;;;5032072;28;20049;-84
2021/04/25 06:16:45;;;;;;;37.78;20.92;;;230.70;1740.80;;;;;;5029603;28;20124;-83
2021/04/25 06:19:10;;;;;;;31.45;18.45;;;230.80;1766.40;;;;;;5052233;28;20075;-84
2021/04/25 06:21:39;;;;;;;33.47;17.25;;;230.80;1740.80;;;;;;5035660;28;20041;-82
2021/04/25 06:24:05;;;;;;;31.98;19.58;;;230.90;1715.20;;;;;;5034903;28;20131;-83
2021/04/25 06:26:32;;;;;;;31.20;18.98;;;231.00;1715.20;;;;;;5033833;28;20083;-83
2021/04/25 06:28:57;;;;;;;31.88;18.85;;;231.10;1740.80;;;;;;5051729;28;20036;-83
2021/04/25 06:31:25;;;;;;;30.23;18.23;;;231.30;1715.20;;;;;;5035971;28;20037;-82
2021/04/25 06:33:51;;;;;;;30.13;18.42;;;231.30;1715.20;;;;;;5036465;28;20044;-82
2021/04/25 06:36:16;;;;;;;26.85;18.02;;;256.00;1715.20;;;;;;5036503;28;20037;-84
2021/04/25 06:38:42;;;;;;;28.38;16.17;;;256.10;1740.80;;;;;;5029440;28;20132;-82
2021/04/25 06:41:08;;;;;;;28.08;16.65;;;256.30;1689.60;;;;;;5031434;28;20491;-84
2021/04/25 06:43:34;;;;;;;29.65;17.00;;;256.30;1689.60;;;;;;5054929;28;20044;-83
2021/04/25 06:46:00;;;;;;;32.08;15.88;;;256.40;1689.60;;;;;;5055961;28;20468;-83
2021/04/25 06:48:26;;;;;;;25.45;15.82;;;256.60;1689.60;;;;;;5056489;28;20051;-82
2021/04/25 06:50:52;;;;;;;31.98;18.27;;;256.70;1689.60;;;;;;5058071;28;20037;-83
2021/04/25 06:53:18;;;;;;;26.48;16.08;;;256.80;1612.80;;;;;;5059452;28;20063;-84
2021/04/25 06:55:44;;;;;;;29.92;16.92;;;281.60;1638.40;;;;;;5060541;28;20036;-84
2021/04/25 06:58:09;;;;;;;28.63;16.95;;;281.60;1612.80;;;;;;5060372;28;20101;-86
2021/04/25 07:00:35;;;;;;;24.90;16.30;;;281.70;1587.20;;;;;;5060355;28;20052;-83
2021/04/25 07:03:02;;;;;;;36.90;16.45;;;282.00;1587.20;;;;;;5079928;28;20021;-82
2021/04/25 07:05:28;;;;;;;28.42;15.30;;;281.90;1561.60;;;;;;5063507;28;20064;-82
2021/04/25 07:07:56;;;;;;;46.30;19.13;;;282.20;1536.00;;;;;;5063809;28;20021;-85
2021/04/25 07:10:22;;;;;;;27.17;15.02;;;282.30;1536.00;;;;;;5060216;28;20048;-82
2021/04/25 07:12:48;;;;;;;28.00;14.63;;;282.50;1536.00;;;;;;5049783;28;20036;-88
2021/04/25 07:15:14;;;;;;;28.20;16.00;;;307.30;1536.00;;;;;;5079578;28;20025;-85
2021/04/25 07:17:40;;;;;;;22.30;14.70;;;307.50;1561.60;;;;;;5079711;28;20017;-86
2021/04/25 07:20:08;;;;;;;25.63;16.58;;;307.60;1536.00;;;;;;5056140;28;20378;-85
2021/04/25 07:22:34;;;;;;;24.25;14.52;;;307.80;1536.00;;;;;;5036756;28;20552;-81
2021/04/25 07:25:00;;;;;;;28.88;14.18;;;308.00;1561.60;;;;;;5043374;28;20132;-81
2021/04/25 07:27:26;;;;;;;28.08;15.18;;;308.00;1510.40;;;;;;5041892;28;20369;-81
2021/04/25 07:29:52;;;;;;;101.13;53.50;;;308.10;1484.80;;;;;;5024341;28;20033;-80
2021/04/25 07:32:18;;;;;;;24.58;14.77;;;308.10;1459.20;;;;;;5034813;28;20029;-80
2021/04/25 07:34:46;;;;;;;24.42;15.75;;;332.90;1484.80;;;;;;5034575;28;20029;-81
2021/04/25 07:37:12;;;;;;;24.77;15.32;;;333.00;1459.20;;;;;;5030930;28;20041;-81
2021/04/25 07:39:38;;;;;;;22.95;15.80;;;333.20;1459.20;;;;;;5036663;28;20463;-80
2021/04/25 07:42:05;;;;;;;22.23;14.38;;;333.30;1536.00;;;;;;5035409;28;20059;-81
2021/04/25 07:44:31;;;;;;;26.92;14.80;;;333.50;1612.80;;;;;;5038082;28;20049;-80
2021/04/25 07:46:57;;;;;;;26.77;14.05;;;333.70;1459.20;;;;;;5075693;28;20542;-81
2021/04/25 07:49:23;;;;;;;29.77;13.82;;;333.70;1484.80;;;;;;5073821;28;20094;-80
2021/04/25 07:51:49;;;;;;;22.77;13.88;;;358.50;1510.40;;;;;;5074924;28;20423;-80
2021/04/25 07:54:40;;;;;;;29.92;14.35;;;358.80;1587.20;;;;;;5057942;28;20135;-83
2021/04/25 08:07:40;;;;;;;31.60;13.85;;;359.10;1331.20;;;;;;5075933;28;20027;-81
2021/04/25 09:20:50;;;;;;;31.70;13.52;;;486.50;947.20;;;;;;5051682;28;20075;-82
2021/04/25 09:23:22;;;;;;;18.08;10.63;;;486.80;1024.00;;;;;;5076163;28;20044;-85
2021/04/25 09:26:03;;;;;;;21.38;10.32;;;486.60;921.60;;;;;;5076231;28;20036;-80
2021/04/25 09:42:31;;;;;;;19.57;10.50;;;512.10;896.00;;;;;;4975969;28;20089;-84
2021/04/25 09:55:56;;;;;;;18.35;10.45;;;512.80;844.80;;;;;;4896045;29;20402;-83
2021/04/25 09:58:31;;;;;;;16.70;10.43;;;512.60;793.60;;;;;;4877986;29;20081;-85
2021/04/25 10:01:07;;;;;;;17.50;9.30;;;512.70;870.40;;;;;;4866178;29;20041;-84
2021/04/25 10:11:38;;;;;;;14.93;9.00;;;512.40;768.00;;;;;;4933430;29;20035;-86
2021/04/25 10:14:07;;;;;;;14.52;8.80;;;512.80;819.20;;;;;;4884861;28;20060;-85
2021/04/25 10:28:14;;;;;;;18.48;9.07;;;512.90;793.60;;;;;;4820550;29;20054;-85
2021/04/25 10:30:42;;;;;;;16.92;9.63;;;538.40;768.00;;;;;;4800575;29;20095;-84
2021/04/25 10:33:42;;;;;;;19.55;12.02;;;563.30;844.80;;;;;;4848824;29;20037;-86
2021/04/25 10:36:55;;;;;;;14.68;8.35;;;563.40;768.00;;;;;;4860534;29;20111;-87
2021/04/25 10:46:19;;;;;;;13.45;7.97;;;563.40;768.00;;;;;;4827151;29;20057;-87
2021/04/25 10:49:46;;;;;;;;;;;;;;;;;;;;;
2021/04/25 10:52:24;;;;;;;12.43;7.93;;;538.50;716.80;;;;;;4877380;29;20057;-86
2021/04/25 10:55:20;;;;;;;11.95;8.20;;;512.40;691.20;;;;;;4880912;29;20055;-86
2021/04/25 11:00:50;;;;;;;14.02;7.45;;;537.70;742.40;;;;;;4905951;29;20013;-87
2021/04/25 11:03:21;;;;;;;12.48;7.82;;;538.50;742.40;;;;;;4868517;29;20065;-87
2021/04/25 11:05:54;;;;;;;13.43;7.22;;;563.40;793.60;;;;;;4852852;29;20046;-87
2021/04/25 11:08:23;;;;;;;17.08;8.65;;;563.70;716.80;;;;;;4852309;29;20038;-87
2021/04/25 11:11:15;;;;;;;9.95;6.28;;;564.10;742.40;;;;;;4852446;29;20107;-88
2021/04/25 11:14:03;;;;;;;10.15;5.93;;;564.10;793.60;;;;;;4859183;29;20046;-87
2021/04/25 11:16:43;;;;;;;14.15;7.35;;;589.00;768.00;;;;;;4892183;29;20051;-87
2021/04/25 11:19:13;;;;;;;10.55;6.07;;;589.00;640.00;;;;;;4903062;29;20141;-87
2021/04/25 11:21:51;;;;;;;8.85;5.57;;;588.80;768.00;;;;;;4906034;29;20040;-87
2021/04/25 11:24:27;;;;;;;9.07;4.43;;;589.30;614.40;;;;;;4903736;29;20135;-88
2021/04/25 11:27:01;;;;;;;13.65;5.30;;;589.40;665.60;;;;;;4917107;29;20047;-88
2021/04/25 11:29:52;;;;;;;10.02;5.28;;;614.50;588.80;;;;;;4920495;29;20042;-88
2021/04/25 11:32:32;;;;;;;7.85;4.32;;;589.60;665.60;;;;;;4921097;29;20040;-87
2021/04/25 11:35:09;;;;;;;7.88;4.32;;;614.60;640.00;;;;;;4919919;29;20045;-87
2021/04/25 11:37:35;;;;;;;7.25;4.45;;;614.50;640.00;;;;;;4971540;28;20035;-89
2021/04/25 11:40:10;;;;;;;4.70;3.50;;;614.40;512.00;;;;;;4979766;28;20054;-88
2021/04/25 11:42:49;;;;;;;5.70;3.47;;;589.70;614.40;;;;;;4996511;28;20037;-88
2021/04/25 11:45:33;;;;;;;2.70;1.60;;;614.50;537.60;;;;;;4979625;28;20050;-88
2021/04/25 11:48:05;;;;;;;6.40;3.30;;;589.60;435.20;;;;;;4978764;28;20037;-89
2021/04/25 11:50:36;;;;;;;5.47;4.20;;;614.50;537.60;;;;;;5027605;28;20485;-88
2021/04/25 11:53:02;;;;;;;5.22;3.20;;;615.00;563.20;;;;;;5039258;28;20025;-88
2021/04/25 11:55:29;;;;;;;5.15;3.10;;;615.20;486.40;;;;;;5039054;28;20033;-88
2021/04/25 11:57:55;;;;;;;6.25;3.58;;;614.70;460.80;;;;;;5040777;28;20044;-88
2021/04/25 12:00:26;;;;;;;6.38;3.60;;;614.80;486.40;;;;;;5068248;28;20040;-87
2021/04/25 12:03:01;;;;;;;5.13;3.25;;;614.90;537.60;;;;;;5075192;28;20033;-86
2021/04/25 12:05:35;;;;;;;6.20;2.88;;;640.10;537.60;;;;;;5072348;28;20037;-86
2021/04/25 12:08:21;;;;;;;4.60;2.28;;;640.10;563.20;;;;;;5071253;28;20039;-87
2021/04/25 12:10:50;;;;;;;5.75;2.80;;;615.30;512.00;;;;;;5039619;28;20033;-87
2021/04/25 12:13:29;;;;;;;5.82;2.60;;;640.10;512.00;;;;;;5039659;28;20069;-87
2021/04/25 12:16:03;;;;;;;4.57;3.20;;;640.10;537.60;;;;;;5055924;28;20033;-87
2021/04/25 12:18:37;;;;;;;4.80;3.25;;;640.10;537.60;;;;;;5055484;28;20084;-88
2021/04/25 12:21:06;;;;;;;7.35;3.50;;;640.20;486.40;;;;;;5039025;28;20033;-89
2021/04/25 12:23:37;;;;;;;7.00;3.60;;;640.50;486.40;;;;;;5056273;28;20032;-89
2021/04/25 12:26:11;;;;;;;6.35;3.30;;;640.30;409.60;;;;;;5060637;28;20512;-87
2021/04/25 12:28:43;;;;;;;7.15;3.38;;;640.20;460.80;;;;;;5062912;28;20025;-89
2021/04/25 12:31:10;;;;;;;;;;;614.90;486.40;;;;;;5063972;28;20378;-88
2021/04/25 12:33:47;;;;;;;7.97;2.95;;;614.80;460.80;;;;;;5045673;28;20016;-88
2021/04/25 12:36:16;;;;;;;6.25;3.85;;;615.00;460.80;;;;;;5056522;28;20091;-87
2021/04/25 12:38:43;;;;;;;6.43;4.20;;;615.00;486.40;;;;;;5056281;28;20195;-87
2021/04/25 12:41:14;;;;;;;7.13;4.07;;;615.00;512.00;;;;;;5056101;28;20021;-87
2021/04/25 12:43:46;;;;;;;7.18;3.85;;;615.30;460.80;;;;;;5055351;28;20049;-88
2021/04/25 12:46:13;;;;;;;8.30;4.03;;;640.00;512.00;;;;;;5055167;28;20033;-88
2021/04/25 12:48:59;;;;;;;9.10;4.72;;;640.50;512.00;;;;;;5054999;28;20039;-87
2021/04/25 12:51:44;;;;;;;6.85;4.00;;;640.70;537.60;;;;;;5076064;28;20039;-88
2021/04/25 12:54:15;;;;;;;8.98;4.45;;;640.60;537.60;;;;;;5059056;28;20125;-87
2021/04/25 12:56:41;;;;;;;9.43;4.55;;;640.80;563.20;;;;;;5074081;28;20017;-87
2021/04/25 12:59:16;;;;;;;10.43;4.80;;;640.90;486.40;;;;;;5082408;28;20020;-86
2021/04/25 13:01:45;;;;;;;6.45;3.92;;;640.30;460.80;;;;;;5079731;28;20043;-87
2021/04/25 13:04:27;;;;;;;9.07;4.72;;;614.90;460.80;;;;;;5092408;28;20037;-86
2021/04/25 13:07:15;;;;;;;7.82;4.78;;;589.60;486.40;;;;;;5074928;28;20033;-87
2021/04/25 13:09:42;;;;;;;9.55;5.82;;;615.00;537.60;;;;;;5057586;28;20044;-87
2021/04/25 13:12:28;;;;;;;9.18;4.25;;;640.20;512.00;;;;;;5057746;28;20037;-87
2021/04/25 13:15:24;;;;;;;8.07;5.22;;;640.70;512.00;;;;;;5057836;28;20040;-87
2021/04/25 13:17:57;;;;;;;6.40;4.38;;;640.80;486.40;;;;;;5052898;28;20055;-87
2021/04/25 13:20:35;;;;;;;6.25;4.60;;;640.70;486.40;;;;;;5057767;28;20035;-87
2021/04/25 13:23:07;;;;;;;10.98;5.28;;;640.90;409.60;;;;;;5057617;28;20032;-87
2021/04/25 13:25:39;;;;;;;16.83;8.90;;;640.60;460.80;;;;;;5055829;28;20055;-87
2021/04/25 13:28:07;;;;;;;8.67;4.93;;;640.90;435.20;;;;;;5057688;28;20032;-88
2021/04/25 13:30:39;;;;;;;9.73;4.50;;;640.00;486.40;;;;;;5057113;28;20039;-88
2021/04/25 13:33:10;;;;;;;8.10;4.22;;;615.30;512.00;;;;;;5057326;28;20051;-88
2021/04/25 13:35:36;;;;;;;7.22;5.00;;;640.40;537.60;;;;;;5055999;28;20028;-88
2021/04/25 13:38:02;;;;;;;7.38;4.50;;;640.80;537.60;;;;;;5057521;28;20042;-89
2021/04/25 13:40:31;;;;;;;15.45;4.82;;;665.60;563.20;;;;;;5078817;28;20036;-88
2021/04/25 13:42:58;;;;;;;8.00;4.75;;;665.60;512.00;;;;;;5081270;28;20051;-87
2021/04/25 13:45:24;;;;;;;14.02;5.50;;;665.80;512.00;;;;;;5080906;28;20041;-86
2021/04/25 13:47:50;;;;;;;8.45;4.55;;;666.20;563.20;;;;;;5081468;28;20032;-89
2021/04/25 13:50:16;;;;;;;7.40;5.05;;;666.20;486.40;;;;;;5081301;28;20024;-87
2021/04/25 13:52:42;;;;;;;11.70;6.30;;;665.60;512.00;;;;;;5076097;28;20066;-88
2021/04/25 13:55:09;;;;;;;13.57;7.70;;;665.80;486.40;;;;;;5057047;28;20087;-88
2021/04/25 13:57:35;;;;;;;9.95;5.32;;;640.90;486.40;;;;;;5057038;28;20025;-89
2021/04/25 14:00:01;;;;;;;14.50;7.30;;;640.80;460.80;;;;;;5056996;28;20042;-89
2021/04/25 14:02:28;;;;;;;33.92;20.80;;;640.90;460.80;;;;;;5056828;28;20033;-88
2021/04/25 14:04:54;;;;;;;10.30;7.63;;;640.80;486.40;;;;;;5056526;28;20145;-88
2021/04/25 14:07:20;;;;;;;10.20;4.97;;;640.90;460.80;;;;;;5056951;28;20064;-89
2021/04/25 14:09:45;;;;;;;12.93;6.50;;;640.10;460.80;;;;;;5055992;28;20094;-88
2021/04/25 14:12:11;;;;;;;9.48;6.70;;;640.20;486.40;;;;;;5056605;28;20498;-88
2021/04/25 14:14:37;;;;;;;9.70;5.60;;;640.10;486.40;;;;;;5058287;28;20036;-88
2021/04/25 14:17:03;;;;;;;15.85;9.52;;;615.30;486.40;;;;;;5058164;28;20120;-88
2021/04/25 14:19:29;;;;;;;13.20;8.63;;;615.30;512.00;;;;;;5058089;28;20033;-88
2021/04/25 14:21:55;;;;;;;16.33;11.65;;;640.50;512.00;;;;;;5057548;28;20559;-88
2021/04/25 14:24:20;;;;;;;18.35;12.05;;;640.40;486.40;;;;;;5073281;28;20080;-88
2021/04/25 14:26:51;;;;;;;10.23;6.38;;;640.40;486.40;;;;;;5073438;28;20045;-88
2021/04/25 14:29:18;;;;;;;6.85;4.43;;;665.60;537.60;;;;;;5074602;28;20131;-88
2021/04/25 14:31:43;;;;;;;17.58;9.73;;;665.80;563.20;;;;;;5056347;28;20067;-88